Tinicum Township, Pennsylvania
Current Conditions -  °F | °C
As of 3:54 PM on Saturday 27 Dec 2014 (Local Time) from KPHL Reporting Station
Broken Clouds Broken Clouds  
Wind Chill: 55°   Ceiling: 26000
Heat Index: 55°   Visibility: 10mi
Dew Point: 32°   Wind: 7mph
Humidity: 42%   Direction: 190°S
Pressure: 30.19"   Gusts: NA
Location:  39.868°N, 75.2702°W
Report Text: KPHL 272054Z 19006KT 10SM BKN260 13/00 A3019 RMK AO2 SLP223 T01280000 56014
Loading
Personal Weather Stations






























Interactive Weather Map New forecast layout! Learn more

10-Day Weather Forecast

Advertisements
Track Severe Weather on mobile